Time;durP1;ratioP1;P1;durP2;ratioP2;P2;SDS_P1;SDS_P2;PMS_P1;PMS_P2;Temp;Humidity;BMP_temperature;BMP_pressure;BME280_temperature;BME280_humidity;BME280_pressure;Samples;Min_cycle;Max_cycle;Signal;HPM_P1;HPM_P2
2024/01/16 00:02:00;;;;;;;6.28;2.42;;;;;;;;;;5100602;27;20090;-58
2024/01/16 00:04:29;;;;;;;8.18;1.90;;;;;;;;;;5087885;27;20127;-57
2024/01/16 00:06:56;;;;;;;7.45;1.50;;;;;;;;;;5097581;28;20064;-59
2024/01/16 00:09:23;;;;;;;11.60;2.28;;;;;;;;;;5105043;27;20059;-60
2024/01/16 00:11:49;;;;;;;10.82;2.63;;;;;;;;;;5105111;27;20142;-59
2024/01/16 00:14:16;;;;;;;12.35;1.85;;;;;;;;;;5105990;27;20048;-59
2024/01/16 00:16:43;;;;;;;6.55;1.80;;;;;;;;;;5104477;27;20056;-57
2024/01/16 00:19:10;;;;;;;5.40;2.00;;;;;;;;;;5104500;27;20137;-60
2024/01/16 00:21:40;;;;;;;6.68;1.83;;;;;;;;;;5104359;27;20131;-59
2024/01/16 00:24:07;;;;;;;3.08;1.20;;;;;;;;;;5105939;27;20052;-59
2024/01/16 00:26:33;;;;;;;17.75;2.25;;;;;;;;;;5103750;27;20124;-58
2024/01/16 00:29:01;;;;;;;5.07;1.27;;;;;;;;;;5103672;27;20052;-61
2024/01/16 00:31:27;;;;;;;4.93;1.55;;;;;;;;;;5101858;27;20052;-60
2024/01/16 00:33:54;;;;;;;6.50;1.38;;;;;;;;;;5102180;27;20048;-60
2024/01/16 00:36:20;;;;;;;3.78;1.17;;;;;;;;;;5102963;28;20102;-57
2024/01/16 00:38:48;;;;;;;4.13;1.05;;;;;;;;;;5104251;27;20056;-58
2024/01/16 00:41:14;;;;;;;5.45;1.33;;;;;;;;;;5102106;27;20048;-60
2024/01/16 00:43:42;;;;;;;5.07;1.33;;;;;;;;;;5104293;27;20158;-60
2024/01/16 00:46:09;;;;;;;7.72;1.67;;;;;;;;;;5104778;27;20056;-61
2024/01/16 00:48:35;;;;;;;11.13;1.63;;;;;;;;;;5102006;27;20980;-60
2024/01/16 00:51:02;;;;;;;7.63;1.48;;;;;;;;;;5100342;27;20783;-59
2024/01/16 00:53:29;;;;;;;6.10;1.23;;;;;;;;;;5103902;27;20098;-59
2024/01/16 00:55:55;;;;;;;5.88;1.17;;;;;;;;;;5104100;27;20059;-59
2024/01/16 00:58:22;;;;;;;6.43;1.48;;;;;;;;;;5103294;27;20052;-59
2024/01/16 01:00:48;;;;;;;6.57;2.05;;;;;;;;;;5102769;28;20080;-59
2024/01/16 01:03:15;;;;;;;8.75;1.42;;;;;;;;;;5097254;27;20056;-58
2024/01/16 01:05:42;;;;;;;8.18;1.65;;;;;;;;;;5103596;27;20056;-59
2024/01/16 01:08:09;;;;;;;8.25;1.15;;;;;;;;;;5103759;27;20056;-59
2024/01/16 01:10:35;;;;;;;7.55;1.20;;;;;;;;;;5100111;27;20059;-59
2024/01/16 01:13:02;;;;;;;9.63;1.67;;;;;;;;;;5103770;27;20530;-57
2024/01/16 01:15:28;;;;;;;10.63;1.55;;;;;;;;;;5101360;27;20048;-57
2024/01/16 01:17:54;;;;;;;4.38;1.27;;;;;;;;;;5103865;27;20377;-59
2024/01/16 01:20:21;;;;;;;10.82;1.60;;;;;;;;;;5103390;27;20055;-57
2024/01/16 01:22:48;;;;;;;11.60;2.67;;;;;;;;;;5103639;27;20573;-60
2024/01/16 01:25:14;;;;;;;5.10;1.20;;;;;;;;;;5103559;27;20058;-58
2024/01/16 01:27:40;;;;;;;9.05;1.60;;;;;;;;;;5099199;27;20052;-58
2024/01/16 01:30:09;;;;;;;8.18;1.50;;;;;;;;;;5102270;27;20056;-59
2024/01/16 01:32:36;;;;;;;10.57;1.73;;;;;;;;;;5100446;28;20545;-58
2024/01/16 01:35:03;;;;;;;8.75;2.25;;;;;;;;;;5102210;27;20141;-59
2024/01/16 01:37:29;;;;;;;13.48;2.40;;;;;;;;;;5102519;27;20518;-59
2024/01/16 01:39:55;;;;;;;7.03;1.50;;;;;;;;;;5101246;27;20144;-59
2024/01/16 01:42:22;;;;;;;9.93;2.15;;;;;;;;;;5101060;27;20060;-56
2024/01/16 01:44:48;;;;;;;2.20;1.10;;;;;;;;;;5102969;27;20135;-59
2024/01/16 01:47:15;;;;;;;7.68;1.92;;;;;;;;;;5103243;27;20056;-59
2024/01/16 01:49:41;;;;;;;4.88;1.30;;;;;;;;;;5103242;27;20062;-58
2024/01/16 01:52:08;;;;;;;8.57;1.52;;;;;;;;;;5103338;27;20152;-59
2024/01/16 01:54:35;;;;;;;9.98;1.75;;;;;;;;;;5101578;27;20072;-58
2024/01/16 01:57:02;;;;;;;9.15;1.83;;;;;;;;;;5101333;28;20113;-59
2024/01/16 01:59:32;;;;;;;13.15;1.38;;;;;;;;;;5102837;27;20601;-59
2024/01/16 02:01:59;;;;;;;8.88;1.83;;;;;;;;;;5101551;28;20055;-59
2024/01/16 02:04:26;;;;;;;9.88;1.23;;;;;;;;;;5102078;27;20135;-59
2024/01/16 02:06:53;;;;;;;8.32;1.42;;;;;;;;;;5101077;27;20105;-58
2024/01/16 02:09:20;;;;;;;4.60;1.45;;;;;;;;;;5103498;27;20559;-58
2024/01/16 02:11:46;;;;;;;4.90;1.10;;;;;;;;;;5102359;27;20060;-58
2024/01/16 02:14:13;;;;;;;5.28;0.88;;;;;;;;;;5093083;27;20059;-57
2024/01/16 02:16:40;;;;;;;3.88;0.98;;;;;;;;;;5101955;27;20055;-58
2024/01/16 02:19:07;;;;;;;3.47;0.80;;;;;;;;;;5102012;27;20507;-58
2024/01/16 02:21:38;;;;;;;2.83;0.80;;;;;;;;;;5101217;27;20052;-58
2024/01/16 02:24:09;;;;;;;3.25;1.17;;;;;;;;;;5097363;28;20084;-58
2024/01/16 02:26:36;;;;;;;2.42;1.00;;;;;;;;;;5100873;27;20067;-57
2024/01/16 02:29:06;;;;;;;4.50;1.30;;;;;;;;;;5103211;27;20529;-59
2024/01/16 02:31:32;;;;;;;4.53;1.20;;;;;;;;;;5113181;27;20619;-56
2024/01/16 02:33:59;;;;;;;6.53;1.15;;;;;;;;;;5090539;28;20052;-58
2024/01/16 02:36:26;;;;;;;6.65;1.10;;;;;;;;;;5094554;27;20114;-59
2024/01/16 02:38:53;;;;;;;6.50;1.33;;;;;;;;;;5099539;28;21145;-58
2024/01/16 02:41:19;;;;;;;3.55;0.90;;;;;;;;;;5101617;27;20510;-59
2024/01/16 02:43:46;;;;;;;6.60;1.40;;;;;;;;;;5099123;28;20148;-57
2024/01/16 02:46:13;;;;;;;5.88;1.08;;;;;;;;;;5101823;27;20048;-58
2024/01/16 02:48:42;;;;;;;5.72;1.10;;;;;;;;;;5100443;27;20962;-58
2024/01/16 02:51:08;;;;;;;2.75;0.75;;;;;;;;;;5102534;27;20084;-57
2024/01/16 02:53:35;;;;;;;6.13;1.05;;;;;;;;;;5102374;27;20055;-59
2024/01/16 02:56:01;;;;;;;4.97;1.00;;;;;;;;;;5101765;27;20056;-57
2024/01/16 02:58:28;;;;;;;3.17;0.95;;;;;;;;;;5101781;27;20056;-57
2024/01/16 03:00:55;;;;;;;1.63;0.90;;;;;;;;;;5102439;27;20469;-57
2024/01/16 03:03:21;;;;;;;3.20;0.90;;;;;;;;;;5100380;27;20060;-57
2024/01/16 03:05:48;;;;;;;2.65;0.90;;;;;;;;;;5102082;27;20052;-58
2024/01/16 03:08:14;;;;;;;3.85;0.85;;;;;;;;;;5099585;27;20052;-58
2024/01/16 03:10:41;;;;;;;5.22;1.33;;;;;;;;;;5094581;27;20056;-59
2024/01/16 03:13:08;;;;;;;3.80;0.73;;;;;;;;;;5099806;27;20049;-59
2024/01/16 03:15:34;;;;;;;5.15;0.90;;;;;;;;;;5101235;27;20465;-56
2024/01/16 03:18:01;;;;;;;4.07;0.90;;;;;;;;;;5101875;27;20503;-59
2024/01/16 03:20:28;;;;;;;2.22;0.50;;;;;;;;;;5101647;27;20441;-56
2024/01/16 03:22:54;;;;;;;5.78;1.77;;;;;;;;;;5102210;27;20052;-59
2024/01/16 03:25:21;;;;;;;2.85;0.60;;;;;;;;;;5102170;27;20051;-59
2024/01/16 03:27:47;;;;;;;4.45;0.52;;;;;;;;;;5102333;27;21051;-60
2024/01/16 03:30:14;;;;;;;5.57;0.90;;;;;;;;;;5102382;27;20142;-58
2024/01/16 03:32:40;;;;;;;4.85;0.80;;;;;;;;;;5102434;27;20048;-57
2024/01/16 03:35:07;;;;;;;7.47;0.82;;;;;;;;;;5103485;27;20055;-57
2024/01/16 03:37:33;;;;;;;4.70;0.85;;;;;;;;;;5102420;27;20056;-58
2024/01/16 03:40:00;;;;;;;4.53;1.02;;;;;;;;;;5104903;27;20052;-58
2024/01/16 03:42:27;;;;;;;1.10;0.45;;;;;;;;;;5104788;27;20129;-57
2024/01/16 03:44:53;;;;;;;0.63;0.50;;;;;;;;;;5105169;27;20590;-58
2024/01/16 03:47:19;;;;;;;3.35;0.50;;;;;;;;;;5106477;27;20066;-60
2024/01/16 03:49:46;;;;;;;2.75;0.85;;;;;;;;;;5101137;27;20453;-59
2024/01/16 03:52:13;;;;;;;1.75;0.70;;;;;;;;;;5104222;27;20064;-58
2024/01/16 03:54:39;;;;;;;7.10;1.13;;;;;;;;;;5104709;27;20587;-60
2024/01/16 03:57:06;;;;;;;2.58;0.70;;;;;;;;;;5095941;27;20555;-61
2024/01/16 03:59:32;;;;;;;0.70;0.50;;;;;;;;;;5096794;28;20530;-60
2024/01/16 04:02:00;;;;;;;1.67;0.68;;;;;;;;;;5095782;27;20056;-59
2024/01/16 04:04:26;;;;;;;2.22;0.75;;;;;;;;;;5096788;27;20480;-58
2024/01/16 04:06:53;;;;;;;4.35;0.77;;;;;;;;;;5097742;27;20079;-60
2024/01/16 04:09:19;;;;;;;2.95;0.93;;;;;;;;;;5097025;27;20577;-59
2024/01/16 04:11:49;;;;;;;3.30;0.68;;;;;;;;;;5093970;28;20540;-59
2024/01/16 04:14:16;;;;;;;0.80;0.50;;;;;;;;;;5095814;28;20059;-59
2024/01/16 04:16:42;;;;;;;3.13;0.88;;;;;;;;;;5092261;28;20052;-58
2024/01/16 04:19:09;;;;;;;3.78;0.90;;;;;;;;;;5098565;28;20051;-57
2024/01/16 04:21:36;;;;;;;7.20;1.02;;;;;;;;;;5100395;27;20106;-59
2024/01/16 04:24:02;;;;;;;3.08;0.75;;;;;;;;;;5103368;27;20048;-59
2024/01/16 04:26:29;;;;;;;1.30;0.70;;;;;;;;;;5101414;27;20499;-59
2024/01/16 04:28:55;;;;;;;1.80;0.73;;;;;;;;;;5103025;27;20056;-58
2024/01/16 04:31:22;;;;;;;5.05;0.90;;;;;;;;;;5102864;27;20483;-57
2024/01/16 04:33:48;;;;;;;1.63;0.60;;;;;;;;;;5103525;27;20866;-57
2024/01/16 04:36:15;;;;;;;2.35;0.90;;;;;;;;;;5103578;27;20052;-58
2024/01/16 04:38:41;;;;;;;2.33;0.70;;;;;;;;;;5103457;27;20048;-58
2024/01/16 04:41:08;;;;;;;2.13;0.80;;;;;;;;;;5101520;27;20850;-58
2024/01/16 04:43:34;;;;;;;2.88;0.90;;;;;;;;;;5103538;27;20055;-58
2024/01/16 04:46:01;;;;;;;2.50;0.70;;;;;;;;;;5103416;28;20430;-59
2024/01/16 04:48:29;;;;;;;8.50;1.35;;;;;;;;;;5102829;27;20056;-58
2024/01/16 04:50:56;;;;;;;4.38;0.90;;;;;;;;;;5101035;27;20528;-57
2024/01/16 04:53:22;;;;;;;6.38;1.77;;;;;;;;;;5103849;27;20056;-60
2024/01/16 04:55:49;;;;;;;2.75;1.00;;;;;;;;;;5104177;27;20051;-55
2024/01/16 04:58:15;;;;;;;2.78;1.38;;;;;;;;;;5087500;28;20101;-59
2024/01/16 05:00:41;;;;;;;3.95;0.90;;;;;;;;;;5104935;27;20059;-59
2024/01/16 05:03:08;;;;;;;4.32;0.88;;;;;;;;;;5103997;27;20490;-59
2024/01/16 05:05:34;;;;;;;5.22;0.93;;;;;;;;;;5103877;27;20620;-59
2024/01/16 05:08:02;;;;;;;5.05;1.52;;;;;;;;;;5103699;27;20403;-58
2024/01/16 05:10:29;;;;;;;3.50;1.10;;;;;;;;;;5087998;27;20498;-58
2024/01/16 05:12:55;;;;;;;5.15;1.10;;;;;;;;;;5103606;28;20060;-58
2024/01/16 05:15:21;;;;;;;3.53;1.17;;;;;;;;;;5104281;27;20071;-55
2024/01/16 05:17:48;;;;;;;7.22;1.48;;;;;;;;;;5103740;27;20062;-59
2024/01/16 05:20:15;;;;;;;8.23;1.20;;;;;;;;;;5103541;27;20167;-59
2024/01/16 05:22:41;;;;;;;3.35;1.17;;;;;;;;;;5103725;27;20056;-59
2024/01/16 05:25:08;;;;;;;4.28;1.25;;;;;;;;;;5104391;27;20149;-58
2024/01/16 05:27:34;;;;;;;4.50;1.35;;;;;;;;;;5100577;27;20086;-58
2024/01/16 05:30:01;;;;;;;3.03;1.40;;;;;;;;;;5103979;28;20056;-57
2024/01/16 05:32:27;;;;;;;8.13;1.58;;;;;;;;;;5103510;28;20056;-58
2024/01/16 05:34:54;;;;;;;8.35;1.70;;;;;;;;;;5088533;27;20082;-60
2024/01/16 05:37:20;;;;;;;6.22;1.63;;;;;;;;;;5097869;28;20075;-59
2024/01/16 05:39:47;;;;;;;2.85;1.35;;;;;;;;;;5103509;27;20076;-58
2024/01/16 05:42:13;;;;;;;6.03;1.73;;;;;;;;;;5102784;28;20099;-57
2024/01/16 05:44:40;;;;;;;3.33;1.63;;;;;;;;;;5092469;28;20051;-57
2024/01/16 05:47:06;;;;;;;9.43;1.65;;;;;;;;;;5096903;28;20060;-58
2024/01/16 05:49:32;;;;;;;10.48;1.63;;;;;;;;;;5104085;27;20166;-58
2024/01/16 05:51:59;;;;;;;8.32;3.13;;;;;;;;;;5102852;27;20056;-57
2024/01/16 05:54:26;;;;;;;4.80;1.92;;;;;;;;;;5103209;28;20121;-57
2024/01/16 05:56:52;;;;;;;9.50;2.17;;;;;;;;;;5103065;27;20552;-58
2024/01/16 05:59:18;;;;;;;4.95;2.05;;;;;;;;;;5100196;28;20051;-57
2024/01/16 06:01:45;;;;;;;5.47;1.70;;;;;;;;;;5087615;27;20058;-59
2024/01/16 06:04:11;;;;;;;4.57;2.10;;;;;;;;;;5103363;27;20056;-59
2024/01/16 06:06:44;;;;;;;10.57;2.17;;;;;;;;;;5102777;27;20052;-59
2024/01/16 06:09:13;;;;;;;6.93;2.10;;;;;;;;;;5103646;27;20056;-58
2024/01/16 06:11:40;;;;;;;2.92;1.80;;;;;;;;;;5102972;27;20056;-61
2024/01/16 06:14:07;;;;;;;8.05;2.50;;;;;;;;;;5103207;27;20193;-58
2024/01/16 06:16:34;;;;;;;4.45;2.00;;;;;;;;;;5101641;27;20059;-58
2024/01/16 06:19:00;;;;;;;4.00;2.40;;;;;;;;;;5094623;28;20063;-58
2024/01/16 06:21:27;;;;;;;6.40;2.72;;;;;;;;;;5090945;28;20056;-58
2024/01/16 06:23:53;;;;;;;10.85;2.22;;;;;;;;;;5102650;27;20044;-58
2024/01/16 06:26:20;;;;;;;6.43;2.47;;;;;;;;;;5103291;27;20056;-57
2024/01/16 06:28:46;;;;;;;7.50;2.22;;;;;;;;;;5103390;27;20059;-58
2024/01/16 06:31:13;;;;;;;4.30;2.00;;;;;;;;;;5101450;27;20048;-57
2024/01/16 06:33:39;;;;;;;9.35;2.35;;;;;;;;;;5090337;27;20135;-58
2024/01/16 06:36:06;;;;;;;5.90;1.83;;;;;;;;;;5081582;28;20064;-59
2024/01/16 06:38:33;;;;;;;5.35;2.55;;;;;;;;;;5101611;27;20576;-58
2024/01/16 06:41:00;;;;;;;5.68;1.77;;;;;;;;;;5102939;27;20058;-59
2024/01/16 06:43:27;;;;;;;6.28;1.85;;;;;;;;;;5100187;27;20443;-58
2024/01/16 06:45:54;;;;;;;4.45;1.67;;;;;;;;;;5101187;27;20056;-57
2024/01/16 06:48:20;;;;;;;3.97;1.48;;;;;;;;;;5103285;27;20568;-58
2024/01/16 06:50:47;;;;;;;4.97;2.40;;;;;;;;;;5109662;27;20055;-58
2024/01/16 06:53:14;;;;;;;2.78;1.30;;;;;;;;;;5109294;27;20056;-58
2024/01/16 06:55:43;;;;;;;4.35;1.95;;;;;;;;;;5118155;27;20638;-58
2024/01/16 06:58:10;;;;;;;6.15;1.42;;;;;;;;;;5102798;27;20075;-58
2024/01/16 07:00:36;;;;;;;7.13;1.83;;;;;;;;;;5101163;27;20660;-57
2024/01/16 07:03:03;;;;;;;6.63;1.30;;;;;;;;;;5101827;27;20048;-58
2024/01/16 07:05:29;;;;;;;6.18;2.08;;;;;;;;;;5103640;27;20052;-60
2024/01/16 07:07:56;;;;;;;7.47;1.85;;;;;;;;;;5106071;27;20095;-59
2024/01/16 07:10:24;;;;;;;4.15;1.63;;;;;;;;;;5120503;27;20527;-59
2024/01/16 07:12:51;;;;;;;6.35;2.25;;;;;;;;;;5102058;28;20052;-58
2024/01/16 07:15:18;;;;;;;8.10;2.22;;;;;;;;;;5105489;27;20099;-58
2024/01/16 07:17:45;;;;;;;6.20;2.50;;;;;;;;;;5105397;27;20048;-58
2024/01/16 07:20:11;;;;;;;12.13;2.38;;;;;;;;;;5105913;27;20051;-58
2024/01/16 07:22:39;;;;;;;11.45;2.50;;;;;;;;;;5105210;27;20044;-59
2024/01/16 07:25:06;;;;;;;3.00;2.30;;;;;;;;;;5105425;27;20048;-60
2024/01/16 07:27:33;;;;;;;9.30;3.65;;;;;;;;;;5105705;27;20726;-59
2024/01/16 07:30:00;;;;;;;7.72;3.38;;;;;;;;;;5106316;27;20059;-59
2024/01/16 07:32:27;;;;;;;8.45;4.15;;;;;;;;;;5106328;27;20129;-60
2024/01/16 07:34:57;;;;;;;12.05;4.43;;;;;;;;;;5105139;27;20059;-59
2024/01/16 07:37:23;;;;;;;10.60;4.22;;;;;;;;;;5105152;27;20056;-58
2024/01/16 07:39:50;;;;;;;9.27;5.30;;;;;;;;;;5115597;27;20078;-59
2024/01/16 07:42:16;;;;;;;12.82;5.18;;;;;;;;;;5100190;27;20056;-57
2024/01/16 07:44:43;;;;;;;9.65;4.88;;;;;;;;;;5103124;27;20131;-56
2024/01/16 07:47:09;;;;;;;14.63;6.18;;;;;;;;;;5101166;28;20052;-58
2024/01/16 07:49:36;;;;;;;10.85;5.63;;;;;;;;;;5108566;27;20566;-58
2024/01/16 07:52:02;;;;;;;10.48;5.45;;;;;;;;;;5104961;27;20056;-58
2024/01/16 07:54:29;;;;;;;11.27;6.45;;;;;;;;;;5099551;27;20137;-57
2024/01/16 07:56:55;;;;;;;16.73;6.85;;;;;;;;;;5103966;27;20110;-58
2024/01/16 07:59:22;;;;;;;11.30;6.78;;;;;;;;;;5096465;27;20048;-57
2024/01/16 08:01:48;;;;;;;14.18;6.57;;;;;;;;;;5105724;27;20052;-59
2024/01/16 08:04:14;;;;;;;15.07;6.45;;;;;;;;;;5102297;27;20092;-58
2024/01/16 08:06:42;;;;;;;13.75;7.63;;;;;;;;;;5104721;27;20139;-57
2024/01/16 08:09:11;;;;;;;11.98;6.63;;;;;;;;;;5104271;27;20056;-59
2024/01/16 08:11:39;;;;;;;13.52;6.57;;;;;;;;;;5105060;27;20083;-58
2024/01/16 08:14:06;;;;;;;11.98;6.78;;;;;;;;;;5104337;27;20052;-58
2024/01/16 08:16:32;;;;;;;14.25;7.43;;;;;;;;;;5102522;27;20061;-58
2024/01/16 08:18:59;;;;;;;12.27;5.80;;;;;;;;;;5104160;27;20052;-57
2024/01/16 08:21:26;;;;;;;10.15;6.10;;;;;;;;;;5104652;27;20055;-58
2024/01/16 08:23:52;;;;;;;9.68;6.30;;;;;;;;;;5104921;27;20099;-57
2024/01/16 08:26:19;;;;;;;14.13;7.40;;;;;;;;;;5105123;27;20052;-57
2024/01/16 08:28:46;;;;;;;13.40;7.07;;;;;;;;;;5104444;27;20048;-58
2024/01/16 08:31:12;;;;;;;10.82;5.97;;;;;;;;;;5104190;27;20060;-58
2024/01/16 08:33:38;;;;;;;18.10;6.95;;;;;;;;;;5103959;27;20990;-58
2024/01/16 08:36:13;;;;;;;14.90;6.47;;;;;;;;;;5108800;27;20079;-57
2024/01/16 08:38:39;;;;;;;13.45;6.53;;;;;;;;;;5103995;28;20151;-57
2024/01/16 08:41:06;;;;;;;10.43;5.78;;;;;;;;;;5104005;27;20054;-57
2024/01/16 08:43:33;;;;;;;14.50;6.13;;;;;;;;;;5106947;27;20094;-58
2024/01/16 08:45:59;;;;;;;12.32;5.68;;;;;;;;;;5124282;27;20555;-58
2024/01/16 08:48:26;;;;;;;11.50;6.00;;;;;;;;;;5108257;27;20494;-57
2024/01/16 08:50:56;;;;;;;11.80;5.72;;;;;;;;;;5101349;27;21071;-57
2024/01/16 08:53:23;;;;;;;14.15;4.78;;;;;;;;;;5092432;27;20647;-57
2024/01/16 08:55:50;;;;;;;8.50;4.65;;;;;;;;;;5109972;27;20060;-58
2024/01/16 08:58:16;;;;;;;13.57;4.63;;;;;;;;;;5112714;27;20047;-59
2024/01/16 09:00:43;;;;;;;11.30;4.97;;;;;;;;;;5112651;27;20515;-57
2024/01/16 09:03:09;;;;;;;6.40;4.22;;;;;;;;;;5103086;27;20098;-59
2024/01/16 09:05:38;;;;;;;8.55;4.40;;;;;;;;;;5099601;27;20102;-58
2024/01/16 09:08:06;;;;;;;12.40;4.30;;;;;;;;;;5100501;27;20520;-57
2024/01/16 09:10:36;;;;;;;9.65;3.80;;;;;;;;;;5103612;27;20540;-57
2024/01/16 09:13:02;;;;;;;7.30;3.50;;;;;;;;;;5103347;27;20121;-59
2024/01/16 09:15:28;;;;;;;10.88;4.20;;;;;;;;;;5106026;27;20048;-58
2024/01/16 09:17:55;;;;;;;8.43;3.42;;;;;;;;;;5104026;27;20060;-58
2024/01/16 09:20:22;;;;;;;8.52;3.15;;;;;;;;;;5103162;27;20048;-58
2024/01/16 09:22:48;;;;;;;11.55;3.35;;;;;;;;;;5101284;28;20054;-58
2024/01/16 09:25:16;;;;;;;9.85;4.00;;;;;;;;;;5099699;27;20067;-58
2024/01/16 09:27:42;;;;;;;8.65;3.92;;;;;;;;;;5103081;27;20062;-57
2024/01/16 09:30:08;;;;;;;6.43;3.65;;;;;;;;;;5106706;27;20535;-56
2024/01/16 09:32:35;;;;;;;10.48;3.53;;;;;;;;;;5102579;27;20043;-59
2024/01/16 09:35:04;;;;;;;9.45;3.00;;;;;;;;;;5103920;27;20105;-53
2024/01/16 09:37:30;;;;;;;9.63;3.85;;;;;;;;;;5103373;27;20106;-58
2024/01/16 09:39:57;;;;;;;3.80;3.20;;;;;;;;;;5106553;27;20048;-58
2024/01/16 09:42:24;;;;;;;11.52;4.63;;;;;;;;;;5104115;27;20052;-55
2024/01/16 09:44:51;;;;;;;11.50;3.38;;;;;;;;;;5102130;27;20502;-58
2024/01/16 09:47:18;;;;;;;8.40;3.38;;;;;;;;;;5103438;27;20139;-58
2024/01/16 09:49:46;;;;;;;8.48;3.63;;;;;;;;;;5103361;27;20789;-59
2024/01/16 09:52:13;;;;;;;11.65;3.88;;;;;;;;;;5099905;27;20063;-58
2024/01/16 09:54:39;;;;;;;7.50;2.83;;;;;;;;;;5102765;27;20844;-57
2024/01/16 09:57:07;;;;;;;15.10;4.35;;;;;;;;;;5102517;27;20052;-57
2024/01/16 09:59:35;;;;;;;9.38;3.78;;;;;;;;;;5102879;27;20048;-56
2024/01/16 10:02:06;;;;;;;9.05;3.05;;;;;;;;;;5103014;27;20072;-59
2024/01/16 10:04:33;;;;;;;5.05;3.17;;;;;;;;;;5107496;27;20055;-58
2024/01/16 10:07:01;;;;;;;5.82;2.92;;;;;;;;;;5103175;27;20056;-58
2024/01/16 10:09:29;;;;;;;6.90;2.88;;;;;;;;;;5103072;27;20052;-59
2024/01/16 10:11:55;;;;;;;6.68;3.40;;;;;;;;;;5115715;27;20063;-59
2024/01/16 10:14:23;;;;;;;12.13;3.53;;;;;;;;;;5101766;27;20052;-58
2024/01/16 10:16:59;;;;;;;8.48;3.45;;;;;;;;;;5106292;27;20129;-58
2024/01/16 10:19:29;;;;;;;12.70;5.57;;;;;;;;;;5102776;27;20052;-56
2024/01/16 10:22:11;;;;;;;12.00;4.28;;;;;;;;;;5102840;27;20056;-57
2024/01/16 10:24:40;;;;;;;8.48;3.72;;;;;;;;;;5103082;27;20749;-57
2024/01/16 10:27:06;;;;;;;8.02;5.25;;;;;;;;;;5103385;27;20051;-57
2024/01/16 10:29:33;;;;;;;6.75;3.40;;;;;;;;;;5102987;27;20517;-56
2024/01/16 10:32:26;;;;;;;11.98;3.22;;;;;;;;;;5111700;27;20503;-57
2024/01/16 10:35:01;;;;;;;9.25;3.42;;;;;;;;;;5100486;28;20048;-58
2024/01/16 10:37:27;;;;;;;9.85;3.13;;;;;;;;;;5104964;27;20105;-58
2024/01/16 10:39:54;;;;;;;7.10;2.42;;;;;;;;;;5103310;27;20052;-56
2024/01/16 10:42:20;;;;;;;7.35;2.75;;;;;;;;;;5104867;27;20093;-56
2024/01/16 10:44:54;;;;;;;4.53;2.83;;;;;;;;;;5105383;27;20083;-59
2024/01/16 10:47:21;;;;;;;7.90;3.40;;;;;;;;;;5110933;27;20060;-56
2024/01/16 10:49:48;;;;;;;4.50;2.40;;;;;;;;;;5105549;27;20084;-58
2024/01/16 10:52:17;;;;;;;9.70;3.22;;;;;;;;;;5105151;27;20060;-60
2024/01/16 10:54:46;;;;;;;10.27;3.35;;;;;;;;;;5105106;27;20537;-60
2024/01/16 10:57:13;;;;;;;11.10;3.70;;;;;;;;;;5120790;27;20040;-56
2024/01/16 10:59:39;;;;;;;7.63;2.97;;;;;;;;;;5105057;28;20426;-57
2024/01/16 11:02:09;;;;;;;11.70;3.10;;;;;;;;;;5105684;27;20055;-59
2024/01/16 11:04:37;;;;;;;19.40;12.80;;;;;;;;;;5105304;27;20059;-59
2024/01/16 11:07:04;;;;;;;15.07;10.30;;;;;;;;;;5105302;27;20143;-58
2024/01/16 11:09:31;;;;;;;7.03;2.38;;;;;;;;;;5106749;28;20106;-59
2024/01/16 11:11:58;;;;;;;8.43;3.10;;;;;;;;;;5105369;27;20052;-42
2024/01/16 11:14:25;;;;;;;5.93;2.88;;;;;;;;;;5104095;27;20052;-60
2024/01/16 11:16:53;;;;;;;11.60;3.33;;;;;;;;;;5105006;27;20051;-60
2024/01/16 11:19:20;;;;;;;11.80;5.28;;;;;;;;;;5106285;27;20143;-58
2024/01/16 11:22:07;;;;;;;6.40;2.40;;;;;;;;;;5100950;27;20079;-59
2024/01/16 11:24:33;;;;;;;7.85;3.85;;;;;;;;;;5104451;27;20064;-59
2024/01/16 11:26:59;;;;;;;5.70;2.80;;;;;;;;;;5104915;27;20508;-58
2024/01/16 11:29:26;;;;;;;12.85;3.38;;;;;;;;;;5105173;28;20084;-58
2024/01/16 11:31:53;;;;;;;6.82;4.18;;;;;;;;;;5118438;27;20055;-58
2024/01/16 11:34:41;;;;;;;7.30;3.90;;;;;;;;;;5105454;27;20052;-57
2024/01/16 11:37:12;;;;;;;6.50;2.83;;;;;;;;;;5114656;27;20133;-58
2024/01/16 11:39:40;;;;;;;9.02;2.50;;;;;;;;;;5103651;27;20071;-58
2024/01/16 11:42:08;;;;;;;6.65;2.95;;;;;;;;;;5115989;27;20055;-57
2024/01/16 11:44:40;;;;;;;3.40;2.50;;;;;;;;;;5116526;27;20056;-58
2024/01/16 11:47:07;;;;;;;3.72;2.17;;;;;;;;;;5098306;27;20055;-58
2024/01/16 11:49:33;;;;;;;9.50;2.60;;;;;;;;;;5104565;27;20078;-59
2024/01/16 11:52:00;;;;;;;7.18;2.55;;;;;;;;;;5105640;27;20063;-58
2024/01/16 11:54:26;;;;;;;14.13;8.57;;;;;;;;;;5103471;27;20051;-58
2024/01/16 11:57:12;;;;;;;6.05;4.25;;;;;;;;;;5103962;27;20049;-57
2024/01/16 11:59:57;;;;;;;7.40;2.85;;;;;;;;;;5105721;27;20056;-58
2024/01/16 12:02:28;;;;;;;9.90;3.13;;;;;;;;;;5094099;27;20057;-59
2024/01/16 12:05:02;;;;;;;6.25;3.10;;;;;;;;;;5094524;28;20140;-58
2024/01/16 12:07:29;;;;;;;6.30;4.00;;;;;;;;;;5113574;27;20909;-56
2024/01/16 12:10:00;;;;;;;4.13;2.08;;;;;;;;;;5102482;27;20059;-59
2024/01/16 12:12:27;;;;;;;10.55;7.95;;;;;;;;;;5105884;27;20133;-59
2024/01/16 12:14:53;;;;;;;9.20;4.55;;;;;;;;;;5102073;27;20055;-57
2024/01/16 12:17:20;;;;;;;11.52;6.03;;;;;;;;;;5104825;27;20086;-58
2024/01/16 12:19:47;;;;;;;10.98;6.05;;;;;;;;;;5105102;27;20078;-58
2024/01/16 12:22:13;;;;;;;7.22;2.67;;;;;;;;;;5105560;27;20059;-57
2024/01/16 12:24:40;;;;;;;5.45;2.83;;;;;;;;;;5105063;27;20045;-58
2024/01/16 12:27:08;;;;;;;4.53;2.38;;;;;;;;;;5104712;27;20521;-55
2024/01/16 12:29:34;;;;;;;9.45;6.05;;;;;;;;;;5104808;27;20056;-58
2024/01/16 12:32:11;;;;;;;7.82;3.17;;;;;;;;;;5105090;27;20076;-58
2024/01/16 12:34:45;;;;;;;8.55;3.90;;;;;;;;;;5100174;27;20058;-58
2024/01/16 12:37:12;;;;;;;10.63;7.78;;;;;;;;;;5104223;27;20516;-57
2024/01/16 12:39:41;;;;;;;10.13;4.40;;;;;;;;;;5101855;28;20514;-58
2024/01/16 12:42:11;;;;;;;8.18;2.97;;;;;;;;;;5103380;27;20052;-57
2024/01/16 12:44:39;;;;;;;14.40;6.32;;;;;;;;;;5104150;27;20109;-58
2024/01/16 12:47:05;;;;;;;7.05;4.35;;;;;;;;;;5103899;27;20051;-59
2024/01/16 12:49:32;;;;;;;7.88;4.05;;;;;;;;;;5103260;27;20557;-58
2024/01/16 12:52:14;;;;;;;13.43;8.75;;;;;;;;;;5106767;27;20143;-58
2024/01/16 12:54:40;;;;;;;6.78;3.13;;;;;;;;;;5103619;27;20402;-58
2024/01/16 12:57:10;;;;;;;4.43;2.40;;;;;;;;;;5104205;27;20567;-59
2024/01/16 12:59:36;;;;;;;6.07;2.72;;;;;;;;;;5103514;27;20056;-58
2024/01/16 13:02:03;;;;;;;2.63;2.28;;;;;;;;;;5112387;27;20864;-59
2024/01/16 13:04:29;;;;;;;4.55;3.17;;;;;;;;;;5119694;27;20048;-59
2024/01/16 13:07:03;;;;;;;3.92;1.90;;;;;;;;;;5103611;27;20052;-59
2024/01/16 13:09:30;;;;;;;5.75;3.33;;;;;;;;;;5104073;27;20060;-58
2024/01/16 13:11:58;;;;;;;6.38;2.33;;;;;;;;;;5103196;27;20055;-59
2024/01/16 13:14:25;;;;;;;8.55;3.33;;;;;;;;;;5103078;27;20059;-59
2024/01/16 13:16:52;;;;;;;8.63;3.00;;;;;;;;;;5101787;27;20052;-54
2024/01/16 13:19:19;;;;;;;5.03;2.60;;;;;;;;;;5097944;27;20518;-57
2024/01/16 13:21:46;;;;;;;4.07;2.22;;;;;;;;;;5108619;27;20051;-59
2024/01/16 13:24:17;;;;;;;10.35;3.40;;;;;;;;;;5114866;27;20052;-58
2024/01/16 13:26:44;;;;;;;10.02;3.78;;;;;;;;;;5104290;27;20048;-58
2024/01/16 13:29:10;;;;;;;5.97;3.00;;;;;;;;;;5103662;27;20063;-59
2024/01/16 13:31:36;;;;;;;11.30;3.75;;;;;;;;;;5101975;27;20055;-59
2024/01/16 13:34:04;;;;;;;15.02;4.55;;;;;;;;;;5103216;27;20103;-58
2024/01/16 13:36:30;;;;;;;8.43;3.25;;;;;;;;;;5101484;27;20060;-59
2024/01/16 13:39:17;;;;;;;8.57;3.85;;;;;;;;;;5103697;27;20143;-58
2024/01/16 13:41:43;;;;;;;10.00;4.65;;;;;;;;;;5103122;27;20159;-57
2024/01/16 13:44:10;;;;;;;7.88;3.05;;;;;;;;;;5103266;27;20506;-56
2024/01/16 13:46:37;;;;;;;5.97;2.83;;;;;;;;;;5095823;27;20465;-59
2024/01/16 13:49:07;;;;;;;8.48;3.65;;;;;;;;;;5118729;27;20083;-57
2024/01/16 13:51:34;;;;;;;9.00;2.90;;;;;;;;;;5102970;27;20059;-58
2024/01/16 13:54:00;;;;;;;6.55;2.10;;;;;;;;;;5102872;27;20059;-58
2024/01/16 13:56:27;;;;;;;5.85;2.35;;;;;;;;;;5102428;27;20048;-58
2024/01/16 13:59:13;;;;;;;2.83;1.50;;;;;;;;;;5103248;27;20052;-58
2024/01/16 14:01:40;;;;;;;6.15;2.47;;;;;;;;;;5101751;27;20056;-59
2024/01/16 14:04:07;;;;;;;10.23;2.50;;;;;;;;;;5088032;27;20097;-60
2024/01/16 14:06:34;;;;;;;7.32;2.28;;;;;;;;;;5100987;27;20056;-58
2024/01/16 14:09:20;;;;;;;7.80;1.73;;;;;;;;;;5101986;28;20506;-61
2024/01/16 14:11:47;;;;;;;5.35;2.67;;;;;;;;;;5102787;27;20787;-59
2024/01/16 14:14:13;;;;;;;4.30;2.45;;;;;;;;;;5102899;27;20504;-58
2024/01/16 14:16:40;;;;;;;5.55;2.42;;;;;;;;;;5096513;27;20053;-58
2024/01/16 14:19:20;;;;;;;7.25;2.15;;;;;;;;;;5101272;27;20052;-58
2024/01/16 14:21:47;;;;;;;3.88;1.85;;;;;;;;;;5103826;27;20131;-57
2024/01/16 14:24:14;;;;;;;5.65;2.25;;;;;;;;;;5115189;27;20148;-58
2024/01/16 14:26:44;;;;;;;11.23;2.00;;;;;;;;;;5102251;27;20047;-59
2024/01/16 14:29:11;;;;;;;4.03;1.92;;;;;;;;;;5102588;27;20164;-59
2024/01/16 14:31:37;;;;;;;6.50;1.92;;;;;;;;;;5101909;27;20083;-60
2024/01/16 14:34:04;;;;;;;6.10;2.97;;;;;;;;;;5100902;27;20056;-59
2024/01/16 14:36:30;;;;;;;7.28;3.72;;;;;;;;;;5100721;27;20056;-58
2024/01/16 14:38:57;;;;;;;5.65;1.90;;;;;;;;;;5099795;27;20155;-59
2024/01/16 14:41:23;;;;;;;3.00;1.27;;;;;;;;;;5101613;27;20644;-58
2024/01/16 14:43:49;;;;;;;2.38;1.45;;;;;;;;;;5106082;27;20437;-57